createdAt,value
2023-05-22T00:00:03.517Z,169.92
2023-05-22T00:01:03.521Z,166.27
2023-05-22T00:02:03.585Z,161.15
2023-05-22T00:03:03.600Z,166.55
2023-05-22T00:04:03.524Z,164.19
2023-05-22T00:05:03.549Z,166.76
2023-05-22T00:06:03.544Z,161.94
2023-05-22T00:07:03.551Z,169.67
2023-05-22T00:08:03.541Z,160.04
2023-05-22T00:09:03.520Z,176.24
2023-05-22T00:10:03.529Z,164.23
2023-05-22T00:11:03.544Z,167.27
2023-05-22T00:12:03.533Z,163.34
2023-05-22T00:13:03.521Z,164.93
2023-05-22T00:14:03.504Z,165.14
2023-05-22T00:15:03.506Z,174.90
2023-05-22T00:16:03.495Z,168.63
2023-05-22T00:17:03.537Z,160.99
2023-05-22T00:18:03.508Z,169.93
2023-05-22T00:19:03.491Z,165.30
2023-05-22T00:20:03.487Z,173.29
2023-05-22T00:21:03.480Z,166.95
2023-05-22T00:22:03.469Z,165.10
2023-05-22T00:23:03.481Z,167.99
2023-05-22T00:24:03.466Z,169.05
2023-05-22T00:25:03.479Z,168.01
2023-05-22T00:26:03.470Z,160.93
2023-05-22T00:27:03.514Z,175.23
2023-05-22T00:28:03.499Z,162.99
2023-05-22T00:29:03.474Z,164.19
2023-05-22T00:30:03.472Z,166.19
2023-05-22T00:31:03.468Z,163.43
2023-05-22T00:32:03.495Z,165.19
2023-05-22T00:33:03.506Z,167.25
2023-05-22T00:34:03.467Z,165.17
2023-05-22T00:35:03.456Z,165.31
2023-05-22T00:36:03.448Z,163.25
2023-05-22T00:37:03.455Z,160.58
2023-05-22T00:38:03.461Z,174.73
2023-05-22T00:39:03.428Z,162.48
2023-05-22T00:40:03.435Z,166.52
2023-05-22T00:41:03.429Z,165.13
2023-05-22T00:42:03.442Z,164.60
2023-05-22T00:43:03.414Z,171.63
2023-05-22T00:44:03.424Z,166.26
2023-05-22T00:45:03.532Z,163.45
2023-05-22T00:46:03.460Z,160.10
2023-05-22T00:47:03.470Z,164.54
2023-05-22T00:48:03.467Z,164.19
2023-05-22T00:49:03.414Z,170.25
2023-05-22T00:50:03.423Z,161.75
2023-05-22T00:51:03.408Z,164.86
2023-05-22T00:52:03.439Z,164.27
2023-05-22T00:53:03.428Z,164.41
2023-05-22T00:54:03.415Z,164.20
2023-05-22T00:55:03.445Z,166.46
2023-05-22T00:56:03.410Z,168.25
2023-05-22T00:57:03.444Z,158.75
2023-05-22T00:58:03.428Z,163.44
2023-05-22T00:59:03.408Z,167.18
2023-05-22T01:00:03.419Z,162.45
2023-05-22T01:01:03.416Z,164.32
2023-05-22T01:02:03.488Z,161.58
2023-05-22T01:03:03.515Z,160.63
2023-05-22T01:04:03.502Z,164.73
2023-05-22T01:05:03.432Z,160.16
2023-05-22T01:06:03.432Z,164.92
2023-05-22T01:07:03.471Z,163.87
2023-05-22T01:08:03.445Z,163.08
2023-05-22T01:09:03.456Z,166.89
2023-05-22T01:10:03.451Z,158.72
2023-05-22T01:11:03.457Z,161.30
2023-05-22T01:12:03.464Z,164.90
2023-05-22T01:13:03.462Z,163.94
2023-05-22T01:14:03.479Z,164.57
2023-05-22T01:15:03.483Z,162.30
2023-05-22T01:16:03.523Z,167.19
2023-05-22T01:17:03.493Z,161.67
2023-05-22T01:18:03.525Z,166.02
2023-05-22T01:19:03.519Z,168.84
2023-05-22T01:20:03.502Z,162.70
2023-05-22T01:21:03.483Z,161.97
2023-05-22T01:22:03.484Z,165.99
2023-05-22T01:23:03.485Z,158.77
2023-05-22T01:24:03.473Z,160.14
2023-05-22T01:25:03.468Z,165.84
2023-05-22T01:26:03.470Z,159.94
2023-05-22T01:27:03.463Z,156.76
2023-05-22T01:28:03.469Z,163.59
2023-05-22T01:29:03.484Z,156.77
2023-05-22T01:30:03.478Z,162.98
2023-05-22T01:31:03.476Z,159.03
2023-05-22T01:32:03.497Z,166.75
2023-05-22T01:33:03.730Z,163.30
2023-05-22T01:34:03.532Z,162.73
2023-05-22T01:35:03.496Z,165.62
2023-05-22T01:36:03.499Z,167.75
2023-05-22T01:37:03.498Z,164.47
2023-05-22T01:38:03.503Z,157.91
2023-05-22T01:39:03.495Z,167.51
2023-05-22T01:40:03.506Z,166.42
2023-05-22T01:41:03.516Z,160.15
2023-05-22T01:42:03.531Z,163.57
2023-05-22T01:43:03.529Z,161.25
2023-05-22T01:44:03.542Z,156.74
2023-05-22T01:45:03.546Z,161.67
2023-05-22T01:46:03.609Z,160.81
2023-05-22T01:47:03.553Z,160.11
2023-05-22T01:48:03.594Z,168.17
2023-05-22T01:49:03.557Z,167.99
2023-05-22T01:50:03.546Z,156.26
2023-05-22T01:51:03.558Z,159.41
2023-05-22T01:52:03.583Z,167.67
2023-05-22T01:53:03.563Z,162.45
2023-05-22T01:54:03.578Z,163.66
2023-05-22T01:55:03.603Z,159.25
2023-05-22T01:56:03.563Z,160.79
2023-05-22T01:57:03.571Z,154.01
2023-05-22T01:58:03.592Z,155.44
2023-05-22T01:59:03.584Z,162.60
2023-05-22T02:00:03.585Z,163.16
2023-05-22T02:01:03.639Z,165.55
2023-05-22T02:02:03.652Z,160.72
2023-05-22T02:03:03.692Z,165.81
2023-05-22T02:04:03.610Z,156.18
2023-05-22T02:05:03.608Z,164.92
2023-05-22T02:06:03.609Z,158.25
2023-05-22T02:07:03.624Z,161.29
2023-05-22T02:08:03.638Z,160.76
2023-05-22T02:09:03.630Z,161.83
2023-05-22T02:10:03.645Z,160.69
2023-05-22T02:11:03.646Z,166.45
2023-05-22T02:12:03.654Z,162.32
2023-05-22T02:13:03.655Z,161.01
2023-05-22T02:14:03.682Z,159.63
2023-05-22T02:15:03.682Z,155.58
2023-05-22T02:16:03.708Z,158.52
2023-05-22T02:17:03.697Z,161.84
2023-05-22T02:18:03.758Z,153.57
2023-05-22T02:19:03.778Z,158.50
2023-05-22T02:20:03.726Z,164.11
2023-05-22T02:21:03.730Z,156.04
2023-05-22T02:22:03.729Z,159.56
2023-05-22T02:23:03.736Z,156.80
2023-05-22T02:24:03.780Z,152.58
2023-05-22T02:25:03.752Z,155.75
2023-05-22T02:26:03.749Z,158.66
2023-05-22T02:27:03.788Z,158.84
2023-05-22T02:28:03.779Z,151.84
2023-05-22T02:29:03.791Z,156.85
2023-05-22T02:30:03.793Z,161.65
2023-05-22T02:31:03.890Z,163.19
2023-05-22T02:32:03.811Z,157.25
2023-05-22T02:33:03.914Z,152.02
2023-05-22T02:34:03.828Z,154.06
2023-05-22T02:35:03.855Z,151.71
2023-05-22T02:36:03.855Z,165.97
2023-05-22T02:37:03.871Z,156.29
2023-05-22T02:38:03.861Z,155.82
2023-05-22T02:39:03.852Z,153.13
2023-05-22T02:40:03.874Z,159.20
2023-05-22T02:41:03.877Z,153.76
2023-05-22T02:42:03.882Z,157.62
2023-05-22T02:43:03.901Z,151.07
2023-05-22T02:44:03.886Z,158.23
2023-05-22T02:45:03.907Z,149.88
2023-05-22T02:46:03.922Z,162.07
2023-05-22T02:47:03.966Z,152.60
2023-05-22T02:48:04.048Z,156.86
2023-05-22T02:49:03.909Z,149.38
2023-05-22T02:50:03.903Z,152.50
2023-05-22T02:51:03.934Z,150.82
2023-05-22T02:52:03.920Z,149.07
2023-05-22T02:53:03.930Z,152.16
2023-05-22T02:54:03.944Z,160.24
2023-05-22T02:55:03.948Z,153.23
2023-05-22T02:56:03.954Z,152.51
2023-05-22T02:57:03.958Z,151.32
2023-05-22T02:58:03.963Z,151.45
2023-05-22T02:59:03.985Z,149.38
2023-05-22T03:00:04.002Z,155.83
2023-05-22T03:01:03.997Z,153.89
2023-05-22T03:02:04.067Z,148.53
2023-05-22T03:03:04.110Z,153.77
2023-05-22T03:04:04.090Z,151.98
2023-05-22T03:05:04.028Z,149.35
2023-05-22T03:06:04.052Z,155.35
2023-05-22T03:07:04.062Z,156.44
2023-05-22T03:08:04.067Z,152.71
2023-05-22T03:09:04.074Z,151.31
2023-05-22T03:10:04.078Z,152.99
2023-05-22T03:11:04.088Z,154.42
2023-05-22T03:12:04.102Z,153.56
2023-05-22T03:13:04.107Z,154.79
2023-05-22T03:14:04.121Z,157.34
2023-05-22T03:15:04.123Z,159.68
2023-05-22T03:16:04.239Z,153.63
2023-05-22T03:17:04.131Z,145.07
2023-05-22T03:18:04.178Z,143.58
2023-05-22T03:19:04.153Z,153.52
2023-05-22T03:20:04.165Z,151.36
2023-05-22T03:21:04.165Z,145.57
2023-05-22T03:22:04.166Z,154.58
2023-05-22T03:23:04.200Z,148.30
2023-05-22T03:24:04.196Z,148.31
2023-05-22T03:25:04.226Z,148.68
2023-05-22T03:26:04.216Z,154.69
2023-05-22T03:27:04.249Z,153.21
2023-05-22T03:28:04.250Z,148.87
2023-05-22T03:29:04.395Z,154.27
2023-05-22T03:30:04.257Z,150.02
2023-05-22T03:31:04.238Z,156.51
2023-05-22T03:32:04.251Z,152.21
2023-05-22T03:33:04.287Z,148.46
2023-05-22T03:34:04.345Z,151.15
2023-05-22T03:35:04.323Z,149.08
2023-05-22T03:36:04.276Z,144.97
2023-05-22T03:37:04.283Z,150.01
2023-05-22T03:38:04.292Z,155.36
2023-05-22T03:39:04.311Z,150.56
2023-05-22T03:40:04.304Z,153.93
2023-05-22T03:41:04.307Z,145.92
2023-05-22T03:42:04.326Z,150.47
2023-05-22T03:43:04.328Z,148.66
2023-05-22T03:44:04.352Z,148.90
2023-05-22T03:45:04.328Z,149.25
2023-05-22T03:46:04.383Z,147.55
2023-05-22T03:47:04.347Z,143.19
2023-05-22T03:48:04.412Z,149.27
2023-05-22T03:49:04.352Z,148.84
2023-05-22T03:50:04.376Z,147.26
2023-05-22T03:51:04.375Z,142.43
2023-05-22T03:52:04.385Z,149.96
2023-05-22T03:53:04.388Z,145.22
2023-05-22T03:54:04.426Z,144.45
2023-05-22T03:55:04.420Z,146.77
2023-05-22T03:56:04.427Z,155.63
2023-05-22T03:57:04.426Z,139.67
2023-05-22T03:58:04.438Z,151.46
2023-05-22T03:59:04.444Z,138.19
2023-05-22T04:00:04.452Z,141.89
2023-05-22T04:01:04.476Z,148.17
2023-05-22T04:02:04.491Z,143.42
2023-05-22T04:03:04.574Z,143.48
2023-05-22T04:04:04.485Z,141.95
2023-05-22T04:05:04.509Z,144.80
2023-05-22T04:06:04.502Z,150.55
2023-05-22T04:07:04.510Z,144.99
2023-05-22T04:08:04.514Z,143.82
2023-05-22T04:09:04.533Z,141.85
2023-05-22T04:10:04.536Z,143.99
2023-05-22T04:11:04.543Z,144.10
2023-05-22T04:12:04.533Z,146.12
2023-05-22T04:13:04.648Z,141.49
2023-05-22T04:14:04.564Z,144.07
2023-05-22T04:15:04.557Z,136.06
2023-05-22T04:16:04.678Z,140.49
2023-05-22T04:17:04.549Z,139.41
2023-05-22T04:18:04.593Z,136.37
2023-05-22T04:19:04.577Z,140.58
2023-05-22T04:20:04.545Z,132.16
2023-05-22T04:21:04.542Z,140.73
2023-05-22T04:22:04.545Z,145.47
2023-05-22T04:23:04.545Z,135.05
2023-05-22T04:24:04.532Z,137.91
2023-05-22T04:25:04.537Z,136.18
2023-05-22T04:26:04.566Z,134.48
2023-05-22T04:27:04.536Z,138.61
2023-05-22T04:28:04.548Z,133.54
2023-05-22T04:29:04.536Z,137.62
2023-05-22T04:30:04.523Z,131.14
2023-05-22T04:31:04.540Z,132.87
2023-05-22T04:32:04.511Z,134.62
2023-05-22T04:33:04.614Z,133.97
2023-05-22T04:34:04.524Z,131.60
2023-05-22T04:35:04.543Z,131.70
2023-05-22T04:36:04.579Z,133.85
2023-05-22T04:37:04.630Z,134.46
2023-05-22T04:38:04.654Z,130.35
2023-05-22T04:39:04.687Z,128.49
2023-05-22T04:40:04.742Z,128.94
2023-05-22T04:41:04.833Z,132.28
2023-05-22T04:42:04.853Z,128.60
2023-05-22T04:43:04.939Z,127.28
2023-05-22T04:44:04.984Z,126.67
2023-05-22T04:45:05.043Z,125.61
2023-05-22T04:46:05.107Z,125.36
2023-05-22T04:47:07.572Z,123.52
2023-05-22T04:48:05.260Z,123.26
2023-05-22T04:49:05.150Z,126.87
2023-05-22T04:50:05.137Z,121.42
2023-05-22T04:51:05.126Z,117.88
2023-05-22T04:52:05.137Z,114.98
2023-05-22T04:53:05.145Z,97.44
2023-05-22T04:54:05.121Z,69.75
2023-05-22T04:55:06.219Z,54.70
2023-05-22T04:56:05.112Z,41.50
2023-05-22T04:57:05.089Z,41.08
2023-05-22T04:58:05.097Z,51.26
2023-05-22T04:59:05.079Z,60.26
2023-05-22T05:00:05.078Z,64.34
2023-05-22T05:01:05.141Z,72.69
2023-05-22T05:02:05.075Z,82.77
2023-05-22T05:03:05.141Z,85.84
2023-05-22T05:04:05.095Z,86.85
2023-05-22T05:05:05.039Z,85.90
2023-05-22T05:06:05.041Z,80.82
2023-05-22T05:07:05.090Z,68.44
2023-05-22T05:08:05.026Z,61.59
2023-05-22T05:09:05.022Z,58.28
2023-05-22T05:10:05.005Z,59.98
2023-05-22T05:11:04.995Z,57.91
2023-05-22T05:12:04.989Z,52.42
2023-05-22T05:13:05.005Z,48.42
2023-05-22T05:14:05.008Z,47.11
2023-05-22T05:15:04.965Z,47.38
2023-05-22T05:16:05.009Z,45.62
2023-05-22T05:17:04.976Z,46.21
2023-05-22T05:18:05.091Z,45.11
2023-05-22T05:19:04.970Z,46.89
2023-05-22T05:20:04.933Z,49.24
2023-05-22T05:21:04.976Z,50.34
2023-05-22T05:22:04.922Z,50.33
2023-05-22T05:23:04.929Z,52.55
2023-05-22T05:24:04.937Z,49.91
2023-05-22T05:25:04.999Z,49.16
2023-05-22T05:26:04.927Z,49.67
2023-05-22T05:27:04.888Z,51.54
2023-05-22T05:28:04.898Z,49.78
2023-05-22T05:29:04.868Z,50.57
2023-05-22T05:30:04.963Z,51.13
2023-05-22T05:31:04.916Z,49.39
2023-05-22T05:32:04.900Z,52.31
2023-05-22T05:33:04.923Z,49.57
2023-05-22T05:34:04.912Z,50.51
2023-05-22T05:35:04.839Z,50.83
2023-05-22T05:36:04.894Z,54.18
2023-05-22T05:37:04.855Z,54.35
2023-05-22T05:38:04.887Z,54.32
2023-05-22T05:39:04.877Z,57.24
2023-05-22T05:40:04.844Z,60.79
2023-05-22T05:41:04.805Z,79.88
2023-05-22T05:42:04.833Z,89.58
2023-05-22T05:43:05.572Z,101.21
2023-05-22T05:44:04.779Z,111.84
2023-05-22T05:45:04.769Z,126.01
2023-05-22T05:46:04.826Z,133.84
2023-05-22T05:47:04.761Z,147.89
2023-05-22T05:48:04.842Z,160.93
2023-05-22T05:49:04.874Z,178.15
2023-05-22T05:50:04.771Z,179.38
2023-05-22T05:51:04.732Z,191.98
2023-05-22T05:52:04.805Z,202.86
2023-05-22T05:53:04.734Z,211.25
2023-05-22T05:54:04.722Z,228.11
2023-05-22T05:55:04.714Z,241.74
2023-05-22T05:56:04.705Z,250.00
2023-05-22T05:57:04.688Z,250.05
2023-05-22T05:58:04.688Z,249.09
2023-05-22T05:59:04.673Z,248.38
2023-05-22T06:00:04.707Z,249.10
2023-05-22T06:01:04.670Z,250.00
2023-05-22T06:02:04.668Z,249.12
2023-05-22T06:03:04.733Z,249.35
2023-05-22T06:04:04.808Z,249.37
2023-05-22T06:05:04.751Z,250.00
2023-05-22T06:06:04.714Z,248.59
2023-05-22T06:07:04.723Z,249.40
2023-05-22T06:08:04.707Z,250.00
2023-05-22T06:09:04.706Z,247.65
2023-05-22T06:10:04.718Z,250.00
2023-05-22T06:11:04.738Z,249.37
2023-05-22T06:12:04.757Z,250.00
2023-05-22T06:13:04.757Z,250.00
2023-05-22T06:14:04.750Z,249.82
2023-05-22T06:15:04.782Z,247.89
2023-05-22T06:16:06.600Z,249.73
2023-05-22T06:17:04.760Z,248.10
2023-05-22T06:18:04.797Z,248.66
2023-05-22T06:19:04.893Z,250.00
2023-05-22T06:20:04.805Z,250.03
2023-05-22T06:21:04.859Z,250.00
2023-05-22T06:22:04.790Z,248.42
2023-05-22T06:23:04.803Z,249.00
2023-05-22T06:24:04.795Z,249.59
2023-05-22T06:25:04.824Z,250.00
2023-05-22T06:26:04.831Z,250.00
2023-05-22T06:27:04.797Z,249.62
2023-05-22T06:28:04.807Z,249.35
2023-05-22T06:29:04.786Z,249.78
2023-05-22T06:30:04.991Z,249.91
2023-05-22T06:31:04.806Z,249.21
2023-05-22T06:32:04.916Z,249.47
2023-05-22T06:33:04.928Z,249.53
2023-05-22T06:34:04.939Z,245.64
2023-05-22T06:35:04.816Z,247.27
2023-05-22T06:36:04.789Z,247.96
2023-05-22T06:37:04.861Z,249.32
2023-05-22T06:38:04.845Z,250.00
2023-05-22T06:39:04.836Z,249.12
2023-05-22T06:40:04.855Z,249.86
2023-05-22T06:41:04.846Z,246.14
2023-05-22T06:42:04.822Z,213.96
2023-05-22T06:43:04.877Z,218.13
2023-05-22T06:44:04.849Z,221.19
2023-05-22T06:45:04.905Z,224.45
2023-05-22T06:46:04.816Z,225.71
2023-05-22T06:47:05.089Z,226.96
2023-05-22T06:48:05.150Z,228.34
2023-05-22T06:49:04.799Z,226.18
2023-05-22T06:50:04.801Z,226.08
2023-05-22T06:51:04.803Z,226.88
2023-05-22T06:52:05.419Z,227.50
2023-05-22T06:53:04.817Z,229.05
2023-05-22T06:54:04.879Z,231.42
2023-05-22T06:55:04.806Z,231.90
2023-05-22T06:56:04.797Z,235.40
2023-05-22T06:57:04.791Z,237.33
2023-05-22T06:58:04.809Z,237.80
2023-05-22T06:59:06.205Z,240.12
2023-05-22T07:00:04.800Z,242.65
2023-05-22T07:01:04.778Z,244.04
2023-05-22T07:02:04.754Z,246.46
2023-05-22T07:03:04.876Z,249.31
2023-05-22T07:04:04.749Z,248.96
2023-05-22T07:05:04.751Z,248.77
2023-05-22T07:06:04.815Z,249.20
2023-05-22T07:07:04.804Z,249.57
2023-05-22T07:08:04.810Z,250.00
2023-05-22T07:09:04.943Z,250.00
2023-05-22T07:10:04.910Z,248.57
2023-05-22T07:11:04.885Z,248.04
2023-05-22T07:12:04.958Z,249.62
2023-05-22T07:13:04.980Z,249.27
2023-05-22T07:14:05.038Z,250.00
2023-05-22T07:15:05.081Z,249.06
2023-05-22T07:16:05.125Z,248.77
2023-05-22T07:17:05.165Z,248.22
2023-05-22T07:18:05.268Z,249.15
2023-05-22T07:19:05.276Z,249.50
2023-05-22T07:20:05.206Z,248.93
2023-05-22T07:21:06.124Z,247.79
2023-05-22T07:22:05.273Z,250.00
2023-05-22T07:23:05.609Z,249.22
2023-05-22T07:24:05.370Z,249.58
2023-05-22T07:25:05.397Z,247.74
2023-05-22T07:26:05.401Z,247.25
2023-05-22T07:27:05.397Z,249.81
2023-05-22T07:28:05.496Z,250.00
2023-05-22T07:29:05.486Z,247.97
2023-05-22T07:30:05.576Z,250.00
2023-05-22T07:31:05.554Z,247.43
2023-05-22T07:32:05.673Z,232.59
2023-05-22T07:33:06.125Z,231.02
2023-05-22T07:34:05.744Z,233.77
2023-05-22T07:35:05.768Z,212.65
2023-05-22T07:36:05.826Z,184.33
2023-05-22T07:37:05.939Z,170.18
2023-05-22T07:38:06.106Z,161.64
2023-05-22T07:39:06.047Z,159.92
2023-05-22T07:40:06.102Z,158.49
2023-05-22T07:41:06.242Z,159.47
2023-05-22T07:42:06.209Z,162.32
2023-05-22T07:43:06.626Z,162.35
2023-05-22T07:44:06.323Z,162.11
2023-05-22T07:45:06.384Z,157.62
2023-05-22T07:46:06.504Z,158.29
2023-05-22T07:47:06.475Z,154.64
2023-05-22T07:48:06.595Z,146.38
2023-05-22T07:49:06.583Z,143.85
2023-05-22T07:50:06.678Z,138.00
2023-05-22T07:51:06.701Z,135.20
2023-05-22T07:52:06.745Z,138.23
2023-05-22T07:53:06.820Z,139.35
2023-05-22T07:54:06.845Z,136.52
2023-05-22T07:55:06.936Z,133.57
2023-05-22T07:56:06.949Z,131.49
2023-05-22T07:57:07.075Z,130.55
2023-05-22T07:58:07.021Z,129.24
2023-05-22T07:59:07.088Z,129.88
2023-05-22T08:00:07.122Z,129.82
2023-05-22T08:01:08.786Z,132.84
2023-05-22T08:02:07.244Z,134.48
2023-05-22T08:03:07.339Z,121.24
2023-05-22T08:04:07.378Z,111.12
2023-05-22T08:05:07.481Z,103.44
2023-05-22T08:06:07.376Z,111.04
2023-05-22T08:07:07.376Z,119.26
2023-05-22T08:08:07.426Z,113.53
2023-05-22T08:09:07.455Z,113.07
2023-05-22T08:10:07.512Z,114.60
2023-05-22T08:11:07.729Z,113.10
2023-05-22T08:12:08.000Z,115.33
2023-05-22T08:13:07.770Z,116.97
2023-05-22T08:14:07.748Z,126.10
2023-05-22T08:15:07.711Z,129.96
2023-05-22T08:16:07.767Z,128.94
2023-05-22T08:17:07.847Z,130.64
2023-05-22T08:18:07.816Z,133.88
2023-05-22T08:19:07.917Z,135.63
2023-05-22T08:20:08.032Z,133.80
2023-05-22T08:21:07.888Z,134.31
2023-05-22T08:22:07.906Z,133.84
2023-05-22T08:23:07.989Z,135.49
2023-05-22T08:24:07.981Z,136.48
2023-05-22T08:25:08.003Z,138.03
2023-05-22T08:26:08.070Z,132.74
2023-05-22T08:27:08.065Z,107.43
2023-05-22T08:28:08.623Z,103.72
2023-05-22T08:29:08.772Z,101.30
2023-05-22T08:30:08.198Z,97.22
2023-05-22T08:31:08.285Z,94.62
2023-05-22T08:32:08.349Z,91.20
2023-05-22T08:33:08.346Z,88.86
2023-05-22T08:34:08.324Z,84.25
2023-05-22T08:35:08.367Z,81.03
2023-05-22T08:36:08.423Z,76.48
2023-05-22T08:37:08.482Z,71.41
2023-05-22T08:38:08.644Z,70.51
2023-05-22T08:39:08.619Z,67.81
2023-05-22T08:40:08.702Z,68.05
2023-05-22T08:41:08.728Z,67.81
2023-05-22T08:42:08.838Z,57.77
2023-05-22T08:43:08.854Z,67.06
2023-05-22T08:44:08.899Z,61.98
2023-05-22T08:45:09.170Z,60.27
2023-05-22T08:46:09.042Z,66.50
2023-05-22T08:47:09.281Z,72.75
2023-05-22T08:48:09.628Z,78.93
2023-05-22T08:49:09.642Z,81.38
2023-05-22T08:50:09.296Z,85.66
2023-05-22T08:51:09.278Z,81.22
2023-05-22T08:52:09.317Z,83.59
2023-05-22T08:53:09.363Z,85.83
2023-05-22T08:54:09.414Z,88.75
2023-05-22T08:55:09.437Z,91.51
2023-05-22T08:56:09.468Z,94.04
2023-05-22T08:57:09.500Z,61.56
2023-05-22T08:58:09.540Z,48.96
2023-05-22T08:59:09.609Z,35.04
2023-05-22T09:00:09.574Z,28.14
2023-05-22T09:01:09.610Z,24.95
2023-05-22T09:02:09.587Z,20.62
2023-05-22T09:03:09.632Z,28.89
2023-05-22T09:04:09.777Z,43.01
2023-05-22T09:05:09.630Z,38.07
2023-05-22T09:06:09.648Z,22.09
2023-05-22T09:07:09.667Z,0.00
2023-05-22T09:08:19.578Z,0.00
2023-05-22T09:09:10.649Z,0.00
2023-05-22T09:10:09.640Z,0.00
2023-05-22T09:11:09.643Z,0.00
2023-05-22T09:12:09.704Z,0.00
2023-05-22T09:13:09.672Z,0.00
2023-05-22T09:14:09.630Z,0.00
2023-05-22T09:15:09.614Z,0.00
2023-05-22T09:16:09.674Z,0.00
2023-05-22T09:17:09.813Z,0.00
2023-05-22T09:18:09.686Z,0.00
2023-05-22T09:19:09.776Z,0.00
2023-05-22T09:20:09.774Z,0.00
2023-05-22T09:21:21.390Z,0.00
2023-05-22T09:22:10.821Z,0.07
2023-05-22T09:23:09.841Z,0.00
2023-05-22T09:24:09.826Z,1.69
2023-05-22T09:25:09.832Z,0.06
2023-05-22T09:26:09.790Z,3.10
2023-05-22T09:27:09.818Z,0.00
2023-05-22T09:28:09.790Z,0.00
2023-05-22T09:29:09.778Z,12.62
2023-05-22T09:30:09.779Z,19.29
2023-05-22T09:31:09.777Z,11.27
2023-05-22T09:32:09.810Z,24.79
2023-05-22T09:33:10.382Z,27.66
2023-05-22T09:34:09.916Z,23.81
2023-05-22T09:35:09.996Z,34.63
2023-05-22T09:36:10.043Z,38.00
2023-05-22T09:37:10.120Z,42.46
2023-05-22T09:38:11.445Z,45.86
2023-05-22T09:39:10.135Z,50.57
2023-05-22T09:40:10.137Z,50.00
2023-05-22T09:41:10.136Z,52.20
2023-05-22T09:42:10.172Z,56.57
2023-05-22T09:43:10.157Z,61.34
2023-05-22T09:44:10.671Z,64.50
2023-05-22T09:45:10.206Z,58.43
2023-05-22T09:46:10.231Z,58.01
2023-05-22T09:47:10.260Z,57.56
2023-05-22T09:48:10.264Z,51.24
2023-05-22T09:49:12.666Z,51.14
2023-05-22T09:50:10.353Z,56.13
2023-05-22T09:51:10.281Z,54.67
2023-05-22T09:52:10.278Z,52.93
2023-05-22T09:53:10.277Z,53.72
2023-05-22T09:54:10.274Z,54.88
2023-05-22T09:55:10.252Z,58.24
2023-05-22T09:56:10.251Z,58.13
2023-05-22T09:57:10.241Z,60.65
2023-05-22T09:58:10.244Z,60.45
2023-05-22T09:59:10.235Z,57.74
2023-05-22T10:00:10.252Z,57.82
2023-05-22T10:01:10.222Z,59.53
2023-05-22T10:02:10.287Z,66.24
2023-05-22T10:03:10.236Z,64.06
2023-05-22T10:04:10.365Z,56.93
2023-05-22T10:05:10.192Z,60.99
2023-05-22T10:06:10.199Z,60.79
2023-05-22T10:07:10.173Z,58.69
2023-05-22T10:08:10.165Z,56.43
2023-05-22T10:09:10.169Z,55.56
2023-05-22T10:10:10.177Z,55.40
2023-05-22T10:11:10.171Z,52.49
2023-05-22T10:12:10.141Z,54.76
2023-05-22T10:13:10.127Z,53.41
2023-05-22T10:14:10.126Z,49.11
2023-05-22T10:15:10.114Z,38.50
2023-05-22T10:16:10.194Z,25.84
2023-05-22T10:17:10.186Z,17.50
2023-05-22T10:18:10.259Z,41.03
2023-05-22T10:19:10.356Z,51.96
2023-05-22T10:20:10.311Z,50.82
2023-05-22T10:21:10.492Z,54.72
2023-05-22T10:22:10.438Z,58.98
2023-05-22T10:23:10.513Z,55.76
2023-05-22T10:24:10.700Z,61.40
2023-05-22T10:25:11.033Z,65.27
2023-05-22T10:26:10.657Z,73.91
2023-05-22T10:27:10.714Z,85.08
2023-05-22T10:28:10.871Z,92.73
2023-05-22T10:29:11.192Z,90.44
2023-05-22T10:30:10.909Z,94.08
2023-05-22T10:31:10.983Z,96.47
2023-05-22T10:32:11.092Z,97.54
2023-05-22T10:33:11.123Z,99.90
2023-05-22T10:34:11.318Z,106.94
2023-05-22T10:35:11.176Z,113.99
2023-05-22T10:36:11.263Z,120.78
2023-05-22T10:37:17.267Z,124.59
2023-05-22T10:38:12.289Z,123.49
2023-05-22T10:39:11.270Z,123.84
2023-05-22T10:40:11.258Z,124.88
2023-05-22T10:41:11.267Z,125.96
2023-05-22T10:42:11.250Z,132.00
2023-05-22T10:43:11.244Z,131.45
2023-05-22T10:44:11.230Z,128.91
2023-05-22T10:45:11.243Z,132.92
2023-05-22T10:46:11.312Z,133.45
2023-05-22T10:47:11.210Z,133.14
2023-05-22T10:48:11.226Z,135.33
2023-05-22T10:49:11.200Z,139.05
2023-05-22T10:50:11.264Z,139.58
2023-05-22T10:51:11.188Z,142.33
2023-05-22T10:52:11.206Z,140.16
2023-05-22T10:53:11.252Z,134.70
2023-05-22T10:54:11.160Z,132.01
2023-05-22T10:55:11.165Z,130.92
2023-05-22T10:56:11.180Z,135.21
2023-05-22T10:57:11.213Z,137.02
2023-05-22T10:58:11.223Z,140.71
2023-05-22T10:59:11.248Z,141.41
2023-05-22T11:00:11.293Z,141.93
2023-05-22T11:01:11.293Z,143.83
2023-05-22T11:02:11.673Z,145.59
2023-05-22T11:03:17.859Z,142.92
2023-05-22T11:04:12.459Z,142.09
2023-05-22T11:05:11.370Z,139.31
2023-05-22T11:06:11.308Z,139.89
2023-05-22T11:07:11.302Z,144.16
2023-05-22T11:08:11.306Z,147.15
2023-05-22T11:09:11.369Z,151.02
2023-05-22T11:10:11.275Z,149.83
2023-05-22T11:11:11.279Z,146.60
2023-05-22T11:12:11.258Z,148.71
2023-05-22T11:13:11.265Z,147.87
2023-05-22T11:14:11.254Z,148.22
2023-05-22T11:15:11.260Z,145.98
2023-05-22T11:16:11.289Z,148.20
2023-05-22T11:17:11.276Z,152.08
2023-05-22T11:18:11.296Z,150.71
2023-05-22T11:19:22.885Z,149.99
2023-05-22T11:20:12.356Z,150.10
2023-05-22T11:21:12.258Z,150.47
2023-05-22T11:22:11.207Z,150.68
2023-05-22T11:23:11.221Z,154.98
2023-05-22T11:24:11.199Z,155.18
2023-05-22T11:25:11.191Z,146.26
2023-05-22T11:26:11.182Z,144.96
2023-05-22T11:27:11.182Z,145.97
2023-05-22T11:28:11.167Z,143.63
2023-05-22T11:29:11.148Z,144.86
2023-05-22T11:30:11.155Z,146.19
2023-05-22T11:31:11.270Z,147.13
2023-05-22T11:32:11.139Z,147.67
2023-05-22T11:33:11.195Z,147.57
2023-05-22T11:34:11.161Z,146.66
2023-05-22T11:35:11.116Z,150.31
2023-05-22T11:36:11.115Z,148.61
2023-05-22T11:37:11.103Z,147.49
2023-05-22T11:38:11.120Z,145.34
2023-05-22T11:39:11.088Z,151.00
2023-05-22T11:40:11.098Z,151.91
2023-05-22T11:41:11.159Z,149.20
2023-05-22T11:42:11.067Z,143.95
2023-05-22T11:43:11.074Z,138.81
2023-05-22T11:44:11.053Z,131.93
2023-05-22T11:45:11.072Z,133.10
2023-05-22T11:46:11.102Z,134.43
2023-05-22T11:47:11.035Z,138.46
2023-05-22T11:48:12.312Z,139.55
2023-05-22T11:49:11.015Z,138.22
2023-05-22T11:50:11.036Z,136.48
2023-05-22T11:51:11.016Z,133.45
2023-05-22T11:52:11.028Z,130.27
2023-05-22T11:53:11.032Z,132.34
2023-05-22T11:54:10.984Z,129.78
2023-05-22T11:55:11.002Z,131.70
2023-05-22T11:56:10.970Z,134.09
2023-05-22T11:57:11.038Z,136.07
2023-05-22T11:58:11.040Z,137.05
2023-05-22T11:59:10.946Z,132.38
2023-05-22T12:00:11.038Z,127.87
2023-05-22T12:01:10.948Z,129.62
2023-05-22T12:02:10.941Z,127.06
2023-05-22T12:03:10.984Z,132.79
2023-05-22T12:04:11.113Z,129.66
2023-05-22T12:05:10.889Z,127.55
2023-05-22T12:06:10.954Z,128.63
2023-05-22T12:07:10.907Z,129.09
2023-05-22T12:08:10.879Z,129.87
2023-05-22T12:09:10.883Z,130.82
2023-05-22T12:10:10.890Z,134.40
2023-05-22T12:11:10.858Z,133.31
2023-05-22T12:12:10.850Z,129.19
2023-05-22T12:13:10.924Z,125.28
2023-05-22T12:14:10.836Z,125.14
2023-05-22T12:15:10.836Z,123.50
2023-05-22T12:16:10.844Z,125.72
2023-05-22T12:17:10.815Z,125.47
2023-05-22T12:18:10.821Z,123.88
2023-05-22T12:19:10.843Z,123.90
2023-05-22T12:20:10.782Z,123.55
2023-05-22T12:21:10.775Z,120.50
2023-05-22T12:22:10.767Z,120.50
2023-05-22T12:23:10.759Z,127.37
2023-05-22T12:24:10.767Z,134.03
2023-05-22T12:25:10.751Z,137.20
2023-05-22T12:26:10.741Z,134.42
2023-05-22T12:27:10.814Z,131.47
2023-05-22T12:28:10.766Z,129.86
2023-05-22T12:29:10.824Z,131.38
2023-05-22T12:30:10.770Z,130.98
2023-05-22T12:31:10.759Z,133.56
2023-05-22T12:32:10.763Z,137.87
2023-05-22T12:33:10.755Z,135.34
2023-05-22T12:34:10.695Z,133.54